sensor_id;sensor_type;location;lat;lon;timestamp;pressure;altitude;pressure_sealevel;temperature;humidity
43934;BME280;59081;42.706;23.306;2023-07-29T00:02:06;94932.78;;;19.94;49.83
43934;BME280;59081;42.706;23.306;2023-07-29T00:04:32;94980.38;;;20.27;49.91
43934;BME280;59081;42.706;23.306;2023-07-29T00:06:57;94868.91;;;19.53;49.49
43934;BME280;59081;42.706;23.306;2023-07-29T00:09:23;94882.38;;;19.60;49.52
43934;BME280;59081;42.706;23.306;2023-07-29T00:11:48;94898.91;;;19.64;49.18
43934;BME280;59081;42.706;23.306;2023-07-29T00:14:14;94903.22;;;19.65;49.59
43934;BME280;59081;42.706;23.306;2023-07-29T00:16:39;94916.47;;;19.75;49.85
43934;BME280;59081;42.706;23.306;2023-07-29T00:19:05;94863.47;;;19.33;49.96
43934;BME280;59081;42.706;23.306;2023-07-29T00:21:34;94945.44;;;19.72;50.40
43934;BME280;59081;42.706;23.306;2023-07-29T00:23:59;94985.16;;;19.99;50.58
43934;BME280;59081;42.706;23.306;2023-07-29T00:26:27;94942.84;;;19.63;51.02
43934;BME280;59081;42.706;23.306;2023-07-29T00:28:57;94938.25;;;19.60;50.99
43934;BME280;59081;42.706;23.306;2023-07-29T00:31:23;95082.69;;;20.45;51.65
43934;BME280;59081;42.706;23.306;2023-07-29T00:33:48;94832.81;;;18.90;51.61
43934;BME280;59081;42.706;23.306;2023-07-29T00:36:14;95077.63;;;20.49;52.14
43934;BME280;59081;42.706;23.306;2023-07-29T00:38:39;94886.03;;;19.18;52.21
43934;BME280;59081;42.706;23.306;2023-07-29T00:41:05;95080.66;;;20.40;52.46
43934;BME280;59081;42.706;23.306;2023-07-29T00:43:31;94817.63;;;18.54;52.78
43934;BME280;59081;42.706;23.306;2023-07-29T00:46:00;94949.84;;;19.42;52.99
43934;BME280;59081;42.706;23.306;2023-07-29T00:48:26;94975.78;;;19.48;53.26
43934;BME280;59081;42.706;23.306;2023-07-29T00:50:52;94868.34;;;18.84;52.93
43934;BME280;59081;42.706;23.306;2023-07-29T00:53:17;95047.38;;;19.94;53.46
43934;BME280;59081;42.706;23.306;2023-07-29T00:55:43;94834.13;;;18.52;53.45
43934;BME280;59081;42.706;23.306;2023-07-29T00:58:10;94819.56;;;18.37;53.53
43934;BME280;59081;42.706;23.306;2023-07-29T01:00:35;94888.13;;;18.86;53.36
43934;BME280;59081;42.706;23.306;2023-07-29T01:03:01;94932.97;;;19.20;53.20
43934;BME280;59081;42.706;23.306;2023-07-29T01:05:32;94879.50;;;18.84;53.43
43934;BME280;59081;42.706;23.306;2023-07-29T01:11:01;95041.50;;;19.80;53.39
43934;BME280;59081;42.706;23.306;2023-07-29T01:13:44;95052.22;;;19.88;53.50
43934;BME280;59081;42.706;23.306;2023-07-29T01:16:29;94964.75;;;19.28;53.85
43934;BME280;59081;42.706;23.306;2023-07-29T01:18:57;95023.06;;;19.52;54.17
43934;BME280;59081;42.706;23.306;2023-07-29T01:21:29;94864.22;;;18.42;54.59
43934;BME280;59081;42.706;23.306;2023-07-29T01:23:58;94846.88;;;18.27;54.42
43934;BME280;59081;42.706;23.306;2023-07-29T01:26:24;94908.06;;;18.68;54.62
43934;BME280;59081;42.706;23.306;2023-07-29T01:28:50;95048.03;;;19.66;54.57
43934;BME280;59081;42.706;23.306;2023-07-29T01:31:32;94969.19;;;19.08;55.14
43934;BME280;59081;42.706;23.306;2023-07-29T01:34:08;94972.00;;;19.08;55.16
43934;BME280;59081;42.706;23.306;2023-07-29T01:36:37;94977.06;;;19.04;55.32
43934;BME280;59081;42.706;23.306;2023-07-29T01:39:06;95018.34;;;19.32;55.37
43934;BME280;59081;42.706;23.306;2023-07-29T01:41:34;94917.91;;;18.63;55.26
43934;BME280;59081;42.706;23.306;2023-07-29T01:44:00;94849.34;;;18.20;55.28
43934;BME280;59081;42.706;23.306;2023-07-29T01:46:27;95060.75;;;19.67;55.41
43934;BME280;59081;42.706;23.306;2023-07-29T01:48:52;94884.06;;;18.50;55.54
43934;BME280;59081;42.706;23.306;2023-07-29T01:51:18;94886.81;;;18.44;55.67
43934;BME280;59081;42.706;23.306;2023-07-29T01:53:43;94896.44;;;18.43;55.78
43934;BME280;59081;42.706;23.306;2023-07-29T01:56:09;94810.31;;;17.88;55.85
43934;BME280;59081;42.706;23.306;2023-07-29T01:58:35;94850.78;;;18.09;55.48
43934;BME280;59081;42.706;23.306;2023-07-29T02:01:00;95040.25;;;19.39;55.77
43934;BME280;59081;42.706;23.306;2023-07-29T02:03:26;94849.75;;;18.07;55.97
43934;BME280;59081;42.706;23.306;2023-07-29T02:05:51;94835.53;;;18.05;55.72
43934;BME280;59081;42.706;23.306;2023-07-29T02:08:17;95010.16;;;19.23;55.68
43934;BME280;59081;42.706;23.306;2023-07-29T02:10:42;94849.31;;;18.14;56.17
43934;BME280;59081;42.706;23.306;2023-07-29T02:13:10;94909.19;;;18.56;56.58
43934;BME280;59081;42.706;23.306;2023-07-29T02:15:36;94863.03;;;18.18;56.62
43934;BME280;59081;42.706;23.306;2023-07-29T02:18:01;94907.34;;;18.47;57.32
43934;BME280;59081;42.706;23.306;2023-07-29T02:20:28;94843.63;;;18.03;57.43
43934;BME280;59081;42.706;23.306;2023-07-29T02:22:54;94891.75;;;18.29;56.99
43934;BME280;59081;42.706;23.306;2023-07-29T02:25:19;94839.06;;;18.00;57.36
43934;BME280;59081;42.706;23.306;2023-07-29T02:27:45;95012.03;;;19.00;57.79
43934;BME280;59081;42.706;23.306;2023-07-29T02:30:11;94947.94;;;18.48;58.02
43934;BME280;59081;42.706;23.306;2023-07-29T02:32:37;94849.06;;;17.86;58.18
43934;BME280;59081;42.706;23.306;2023-07-29T02:35:03;94849.28;;;17.83;58.41
43934;BME280;59081;42.706;23.306;2023-07-29T02:37:30;95077.44;;;19.25;58.71
43934;BME280;59081;42.706;23.306;2023-07-29T02:39:55;94894.56;;;18.03;58.85
43934;BME280;59081;42.706;23.306;2023-07-29T02:42:21;95037.81;;;18.89;58.43
43934;BME280;59081;42.706;23.306;2023-07-29T02:44:46;94811.28;;;17.33;58.87
43934;BME280;59081;42.706;23.306;2023-07-29T02:47:12;94915.56;;;17.99;59.03
43934;BME280;59081;42.706;23.306;2023-07-29T02:49:37;94889.81;;;17.84;58.78
43934;BME280;59081;42.706;23.306;2023-07-29T02:52:03;95047.16;;;18.81;59.41
43934;BME280;59081;42.706;23.306;2023-07-29T02:54:29;94975.69;;;18.31;59.25
43934;BME280;59081;42.706;23.306;2023-07-29T02:56:55;94993.97;;;18.38;59.34
43934;BME280;59081;42.706;23.306;2023-07-29T02:59:20;94955.84;;;17.98;59.30
43934;BME280;59081;42.706;23.306;2023-07-29T03:01:46;95091.25;;;18.76;59.38
43934;BME280;59081;42.706;23.306;2023-07-29T03:04:11;95016.38;;;18.23;59.91
43934;BME280;59081;42.706;23.306;2023-07-29T03:06:38;94922.06;;;17.50;59.77
43934;BME280;59081;42.706;23.306;2023-07-29T03:09:04;94917.16;;;17.39;59.58
43934;BME280;59081;42.706;23.306;2023-07-29T03:11:30;95102.03;;;18.63;59.66
43934;BME280;59081;42.706;23.306;2023-07-29T03:13:56;95005.44;;;17.94;59.46
43934;BME280;59081;42.706;23.306;2023-07-29T03:16:22;95026.03;;;18.02;59.56
43934;BME280;59081;42.706;23.306;2023-07-29T03:18:48;94988.72;;;17.73;59.48
43934;BME280;59081;42.706;23.306;2023-07-29T03:21:14;94960.84;;;17.53;59.44
43934;BME280;59081;42.706;23.306;2023-07-29T03:23:39;95009.88;;;17.86;59.14
43934;BME280;59081;42.706;23.306;2023-07-29T03:26:05;94928.84;;;17.23;59.60
43934;BME280;59081;42.706;23.306;2023-07-29T03:28:41;94968.38;;;17.47;59.42
43934;BME280;59081;42.706;23.306;2023-07-29T03:31:07;94919.03;;;17.07;59.64
43934;BME280;59081;42.706;23.306;2023-07-29T03:33:33;95067.06;;;18.01;59.74
43934;BME280;59081;42.706;23.306;2023-07-29T03:35:59;94936.81;;;17.15;59.94
43934;BME280;59081;42.706;23.306;2023-07-29T03:38:24;95022.16;;;17.73;60.02
43934;BME280;59081;42.706;23.306;2023-07-29T03:40:50;94983.28;;;17.44;59.89
43934;BME280;59081;42.706;23.306;2023-07-29T03:43:16;94994.00;;;17.51;60.32
43934;BME280;59081;42.706;23.306;2023-07-29T03:45:41;94952.94;;;17.26;60.16
43934;BME280;59081;42.706;23.306;2023-07-29T03:48:07;95015.19;;;17.63;60.17
43934;BME280;59081;42.706;23.306;2023-07-29T03:50:34;95091.47;;;18.06;60.59
43934;BME280;59081;42.706;23.306;2023-07-29T03:53:03;95106.81;;;18.17;60.60
43934;BME280;59081;42.706;23.306;2023-07-29T03:55:29;95093.34;;;18.15;60.98
43934;BME280;59081;42.706;23.306;2023-07-29T03:57:56;95047.03;;;17.77;60.89
43934;BME280;59081;42.706;23.306;2023-07-29T04:00:22;95002.63;;;17.53;60.99
43934;BME280;59081;42.706;23.306;2023-07-29T04:02:48;94979.28;;;17.10;61.76
43934;BME280;59081;42.706;23.306;2023-07-29T04:05:13;94999.34;;;17.14;62.21
43934;BME280;59081;42.706;23.306;2023-07-29T04:07:39;94966.09;;;16.90;62.37
43934;BME280;59081;42.706;23.306;2023-07-29T04:10:05;95123.34;;;17.85;62.14
43934;BME280;59081;42.706;23.306;2023-07-29T04:12:31;95075.22;;;17.50;62.59
43934;BME280;59081;42.706;23.306;2023-07-29T04:14:56;95054.91;;;17.44;62.73
43934;BME280;59081;42.706;23.306;2023-07-29T04:17:22;94917.66;;;16.18;63.94
43934;BME280;59081;42.706;23.306;2023-07-29T04:19:47;94984.34;;;16.77;63.67
43934;BME280;59081;42.706;23.306;2023-07-29T04:22:15;94988.16;;;16.94;63.31
43934;BME280;59081;42.706;23.306;2023-07-29T04:24:41;94969.44;;;16.94;63.25
43934;BME280;59081;42.706;23.306;2023-07-29T04:27:06;94925.84;;;16.71;62.95
43934;BME280;59081;42.706;23.306;2023-07-29T04:29:32;94973.84;;;17.21;62.34
43934;BME280;59081;42.706;23.306;2023-07-29T04:31:57;95037.63;;;17.74;61.87
43934;BME280;59081;42.706;23.306;2023-07-29T04:34:23;95018.72;;;17.44;62.05
43934;BME280;59081;42.706;23.306;2023-07-29T04:36:48;94986.91;;;17.30;62.07
43934;BME280;59081;42.706;23.306;2023-07-29T04:39:14;95125.47;;;18.31;61.86
43934;BME280;59081;42.706;23.306;2023-07-29T04:41:40;95117.81;;;18.26;61.81
43934;BME280;59081;42.706;23.306;2023-07-29T04:44:06;95037.75;;;17.86;62.01
43934;BME280;59081;42.706;23.306;2023-07-29T04:46:32;95025.50;;;17.78;62.07
43934;BME280;59081;42.706;23.306;2023-07-29T04:48:57;95030.66;;;17.85;61.99
43934;BME280;59081;42.706;23.306;2023-07-29T04:51:23;95102.81;;;18.43;61.78
43934;BME280;59081;42.706;23.306;2023-07-29T04:53:49;94971.94;;;17.68;61.50
43934;BME280;59081;42.706;23.306;2023-07-29T04:56:15;95056.47;;;18.26;60.98
43934;BME280;59081;42.706;23.306;2023-07-29T04:58:40;94968.75;;;17.75;60.56
43934;BME280;59081;42.706;23.306;2023-07-29T05:01:06;94989.56;;;18.00;60.05
43934;BME280;59081;42.706;23.306;2023-07-29T05:03:31;95020.66;;;18.19;59.56
43934;BME280;59081;42.706;23.306;2023-07-29T05:05:58;95075.75;;;18.50;59.81
43934;BME280;59081;42.706;23.306;2023-07-29T05:08:27;95082.09;;;18.50;59.95
43934;BME280;59081;42.706;23.306;2023-07-29T05:10:53;95124.88;;;18.93;59.55
43934;BME280;59081;42.706;23.306;2023-07-29T05:13:25;95069.31;;;18.64;59.62
43934;BME280;59081;42.706;23.306;2023-07-29T05:15:51;94966.56;;;17.85;59.26
43934;BME280;59081;42.706;23.306;2023-07-29T05:18:17;94966.34;;;17.88;59.22
43934;BME280;59081;42.706;23.306;2023-07-29T05:20:42;95139.78;;;19.10;59.42
43934;BME280;59081;42.706;23.306;2023-07-29T05:23:08;95004.47;;;17.97;59.88
43934;BME280;59081;42.706;23.306;2023-07-29T05:25:34;95145.47;;;19.22;59.07
43934;BME280;59081;42.706;23.306;2023-07-29T05:28:03;95049.38;;;18.76;59.50
43934;BME280;59081;42.706;23.306;2023-07-29T05:30:32;95127.88;;;19.47;58.95
43934;BME280;59081;42.706;23.306;2023-07-29T05:32:58;95027.56;;;19.06;58.06
43934;BME280;59081;42.706;23.306;2023-07-29T05:35:24;95040.69;;;19.32;57.53
43934;BME280;59081;42.706;23.306;2023-07-29T05:37:50;95034.44;;;19.48;56.46
43934;BME280;59081;42.706;23.306;2023-07-29T05:40:15;95081.16;;;19.85;55.67
43934;BME280;59081;42.706;23.306;2023-07-29T05:42:41;95004.22;;;19.46;55.49
43934;BME280;59081;42.706;23.306;2023-07-29T05:45:07;95042.06;;;19.96;55.36
43934;BME280;59081;42.706;23.306;2023-07-29T05:47:33;95011.84;;;20.00;54.28
43934;BME280;59081;42.706;23.306;2023-07-29T05:49:58;95126.31;;;20.85;54.11
43934;BME280;59081;42.706;23.306;2023-07-29T05:52:25;94986.22;;;20.07;53.43
43934;BME280;59081;42.706;23.306;2023-07-29T05:54:50;95041.19;;;20.32;53.70
43934;BME280;59081;42.706;23.306;2023-07-29T05:57:16;95048.31;;;20.33;53.93
43934;BME280;59081;42.706;23.306;2023-07-29T05:59:41;94994.13;;;20.20;53.26
43934;BME280;59081;42.706;23.306;2023-07-29T06:02:07;95002.06;;;20.43;52.72
43934;BME280;59081;42.706;23.306;2023-07-29T06:04:32;94968.47;;;20.43;51.88
43934;BME280;59081;42.706;23.306;2023-07-29T06:06:58;95063.19;;;21.17;51.74
43934;BME280;59081;42.706;23.306;2023-07-29T06:09:23;95022.97;;;21.09;51.46
43934;BME280;59081;42.706;23.306;2023-07-29T06:11:50;95064.72;;;21.52;51.17
43934;BME280;59081;42.706;23.306;2023-07-29T06:14:16;95077.16;;;21.79;50.78
43934;BME280;59081;42.706;23.306;2023-07-29T06:16:41;95006.16;;;21.32;49.68
43934;BME280;59081;42.706;23.306;2023-07-29T06:19:07;95056.06;;;21.61;49.56
43934;BME280;59081;42.706;23.306;2023-07-29T06:21:34;95048.66;;;21.58;49.77
43934;BME280;59081;42.706;23.306;2023-07-29T06:24:00;95066.47;;;21.77;49.50
43934;BME280;59081;42.706;23.306;2023-07-29T06:26:25;95024.72;;;21.63;49.04
43934;BME280;59081;42.706;23.306;2023-07-29T06:28:50;95105.75;;;21.49;50.67
43934;BME280;59081;42.706;23.306;2023-07-29T06:31:16;95004.38;;;21.01;49.97
43934;BME280;59081;42.706;23.306;2023-07-29T06:33:41;95051.19;;;21.67;49.45
43934;BME280;59081;42.706;23.306;2023-07-29T06:36:07;95057.25;;;21.88;49.00
43934;BME280;59081;42.706;23.306;2023-07-29T06:38:33;94967.34;;;21.69;48.07
43934;BME280;59081;42.706;23.306;2023-07-29T06:40:58;95125.84;;;23.14;46.69
43934;BME280;59081;42.706;23.306;2023-07-29T06:43:24;95029.75;;;22.44;46.71
43934;BME280;59081;42.706;23.306;2023-07-29T06:45:49;94984.78;;;22.09;46.47
43934;BME280;59081;42.706;23.306;2023-07-29T06:48:15;95080.28;;;22.44;46.99
43934;BME280;59081;42.706;23.306;2023-07-29T06:50:40;95129.28;;;22.96;47.19
43934;BME280;59081;42.706;23.306;2023-07-29T06:53:06;95005.00;;;22.43;46.61
43934;BME280;59081;42.706;23.306;2023-07-29T06:55:34;95054.16;;;23.02;46.37
43934;BME280;59081;42.706;23.306;2023-07-29T06:57:59;94964.81;;;22.65;45.41
43934;BME280;59081;42.706;23.306;2023-07-29T07:00:25;95094.78;;;23.66;45.28
43934;BME280;59081;42.706;23.306;2023-07-29T07:02:50;95001.81;;;23.29;44.85
43934;BME280;59081;42.706;23.306;2023-07-29T07:05:16;94975.94;;;23.11;44.79
43934;BME280;59081;42.706;23.306;2023-07-29T07:07:42;95026.72;;;23.43;44.33
43934;BME280;59081;42.706;23.306;2023-07-29T07:10:07;95063.56;;;23.70;44.48
43934;BME280;59081;42.706;23.306;2023-07-29T07:12:33;94971.72;;;23.23;44.38
43934;BME280;59081;42.706;23.306;2023-07-29T07:15:00;95037.84;;;23.84;44.64
43934;BME280;59081;42.706;23.306;2023-07-29T07:17:25;95026.09;;;24.05;43.53
43934;BME280;59081;42.706;23.306;2023-07-29T07:19:51;94992.25;;;24.10;42.58
43934;BME280;59081;42.706;23.306;2023-07-29T07:22:16;94926.41;;;23.57;43.26
43934;BME280;59081;42.706;23.306;2023-07-29T07:24:42;95062.84;;;24.55;42.66
43934;BME280;59081;42.706;23.306;2023-07-29T07:27:07;95038.63;;;24.66;42.41
43934;BME280;59081;42.706;23.306;2023-07-29T07:29:33;95013.16;;;24.39;42.81
43934;BME280;59081;42.706;23.306;2023-07-29T07:31:59;94991.47;;;24.34;42.41
43934;BME280;59081;42.706;23.306;2023-07-29T07:34:24;95002.47;;;24.32;42.24
43934;BME280;59081;42.706;23.306;2023-07-29T07:36:50;94954.00;;;24.20;42.05
43934;BME280;59081;42.706;23.306;2023-07-29T07:39:15;95086.03;;;25.18;42.00
43934;BME280;59081;42.706;23.306;2023-07-29T07:41:41;95029.47;;;24.78;42.05
43934;BME280;59081;42.706;23.306;2023-07-29T07:44:07;94936.97;;;24.32;42.19
43934;BME280;59081;42.706;23.306;2023-07-29T07:46:33;94998.06;;;24.74;41.46
43934;BME280;59081;42.706;23.306;2023-07-29T07:48:58;94958.75;;;24.82;40.94
43934;BME280;59081;42.706;23.306;2023-07-29T07:51:24;95022.91;;;25.53;39.67
43934;BME280;59081;42.706;23.306;2023-07-29T07:53:49;94975.28;;;25.36;39.38
43934;BME280;59081;42.706;23.306;2023-07-29T07:56:15;95069.84;;;26.22;39.02
43934;BME280;59081;42.706;23.306;2023-07-29T07:58:41;94998.66;;;25.89;38.35
43934;BME280;59081;42.706;23.306;2023-07-29T08:01:08;95118.19;;;26.58;39.22
43934;BME280;59081;42.706;23.306;2023-07-29T08:03:34;95029.69;;;25.89;38.94
43934;BME280;59081;42.706;23.306;2023-07-29T08:06:00;95037.50;;;25.83;39.39
43934;BME280;59081;42.706;23.306;2023-07-29T08:08:26;95087.94;;;26.32;38.42
43934;BME280;59081;42.706;23.306;2023-07-29T08:10:53;95068.69;;;26.44;38.30
43934;BME280;59081;42.706;23.306;2023-07-29T08:13:21;95014.47;;;26.19;37.97
43934;BME280;59081;42.706;23.306;2023-07-29T08:15:48;95111.78;;;26.57;38.36
43934;BME280;59081;42.706;23.306;2023-07-29T08:18:14;95014.94;;;26.10;37.76
43934;BME280;59081;42.706;23.306;2023-07-29T08:20:41;95126.63;;;26.84;37.71
43934;BME280;59081;42.706;23.306;2023-07-29T08:23:06;95014.91;;;26.36;37.83
43934;BME280;59081;42.706;23.306;2023-07-29T08:25:32;95118.81;;;27.24;37.02
43934;BME280;59081;42.706;23.306;2023-07-29T08:27:57;94963.84;;;26.47;36.09
43934;BME280;59081;42.706;23.306;2023-07-29T08:30:23;94978.91;;;26.63;36.08
43934;BME280;59081;42.706;23.306;2023-07-29T08:32:48;94978.09;;;26.76;34.63
43934;BME280;59081;42.706;23.306;2023-07-29T08:35:14;95078.38;;;27.50;35.08
43934;BME280;59081;42.706;23.306;2023-07-29T08:37:40;95018.88;;;27.43;34.53
43934;BME280;59081;42.706;23.306;2023-07-29T08:40:06;94968.56;;;26.99;33.08
43934;BME280;59081;42.706;23.306;2023-07-29T08:42:32;94999.44;;;26.97;34.48
43934;BME280;59081;42.706;23.306;2023-07-29T08:45:06;95028.69;;;27.00;34.96
43934;BME280;59081;42.706;23.306;2023-07-29T08:47:33;94978.50;;;26.80;35.36
43934;BME280;59081;42.706;23.306;2023-07-29T08:49:59;94990.81;;;27.03;34.96
43934;BME280;59081;42.706;23.306;2023-07-29T08:52:27;94961.66;;;27.08;34.68
43934;BME280;59081;42.706;23.306;2023-07-29T08:54:54;95052.19;;;27.78;34.16
43934;BME280;59081;42.706;23.306;2023-07-29T08:57:20;95015.22;;;27.76;34.35
43934;BME280;59081;42.706;23.306;2023-07-29T08:59:47;95040.84;;;27.99;32.90
43934;BME280;59081;42.706;23.306;2023-07-29T09:02:13;94973.31;;;27.54;33.20
43934;BME280;59081;42.706;23.306;2023-07-29T09:04:39;95003.56;;;27.59;31.74
43934;BME280;59081;42.706;23.306;2023-07-29T09:07:05;94974.47;;;27.79;30.65
43934;BME280;59081;42.706;23.306;2023-07-29T09:09:32;94952.69;;;27.95;29.99
43934;BME280;59081;42.706;23.306;2023-07-29T09:11:57;94973.19;;;28.16;29.51
43934;BME280;59081;42.706;23.306;2023-07-29T09:14:23;94998.28;;;27.84;30.86
43934;BME280;59081;42.706;23.306;2023-07-29T09:16:49;95018.78;;;27.77;30.99
43934;BME280;59081;42.706;23.306;2023-07-29T09:19:14;94967.06;;;27.68;30.38
43934;BME280;59081;42.706;23.306;2023-07-29T09:21:40;94956.59;;;27.84;30.47
43934;BME280;59081;42.706;23.306;2023-07-29T09:24:07;94888.66;;;27.56;30.38
43934;BME280;59081;42.706;23.306;2023-07-29T09:26:33;94976.88;;;28.32;29.90
43934;BME280;59081;42.706;23.306;2023-07-29T09:29:00;94971.19;;;28.83;29.75
43934;BME280;59081;42.706;23.306;2023-07-29T09:31:27;94901.22;;;28.70;28.77
43934;BME280;59081;42.706;23.306;2023-07-29T09:34:01;95023.47;;;29.79;27.17
43934;BME280;59081;42.706;23.306;2023-07-29T09:36:27;95030.66;;;29.80;27.99
43934;BME280;59081;42.706;23.306;2023-07-29T09:38:56;95055.06;;;30.13;27.16
43934;BME280;59081;42.706;23.306;2023-07-29T09:41:26;95052.44;;;30.08;26.88
43934;BME280;59081;42.706;23.306;2023-07-29T09:44:00;94884.84;;;29.22;26.11
43934;BME280;59081;42.706;23.306;2023-07-29T09:46:33;94976.56;;;29.63;26.65
43934;BME280;59081;42.706;23.306;2023-07-29T09:48:59;94939.47;;;29.30;26.44
43934;BME280;59081;42.706;23.306;2023-07-29T09:51:24;94987.88;;;29.93;26.46
43934;BME280;59081;42.706;23.306;2023-07-29T09:53:51;94991.25;;;30.15;26.02
43934;BME280;59081;42.706;23.306;2023-07-29T09:56:25;94962.34;;;29.86;25.96
43934;BME280;59081;42.706;23.306;2023-07-29T09:58:51;95043.47;;;30.42;26.19
43934;BME280;59081;42.706;23.306;2023-07-29T10:01:17;94986.00;;;29.96;25.61
43934;BME280;59081;42.706;23.306;2023-07-29T10:03:44;94883.91;;;29.42;26.21
43934;BME280;59081;42.706;23.306;2023-07-29T10:06:10;94955.25;;;30.25;25.56
43934;BME280;59081;42.706;23.306;2023-07-29T10:08:36;94952.84;;;30.54;25.47
43934;BME280;59081;42.706;23.306;2023-07-29T10:11:08;95028.50;;;31.29;25.14
43934;BME280;59081;42.706;23.306;2023-07-29T10:13:35;94967.50;;;30.83;24.74
43934;BME280;59081;42.706;23.306;2023-07-29T10:16:01;94925.41;;;29.93;25.14
43934;BME280;59081;42.706;23.306;2023-07-29T10:18:31;95022.88;;;30.82;25.10
43934;BME280;59081;42.706;23.306;2023-07-29T10:20:58;94910.69;;;30.35;25.60
43934;BME280;59081;42.706;23.306;2023-07-29T10:23:28;94935.59;;;30.92;24.65
43934;BME280;59081;42.706;23.306;2023-07-29T10:26:03;94939.53;;;31.29;24.21
43934;BME280;59081;42.706;23.306;2023-07-29T10:28:30;94942.81;;;30.93;24.77
43934;BME280;59081;42.706;23.306;2023-07-29T10:30:57;94994.81;;;31.43;25.39
43934;BME280;59081;42.706;23.306;2023-07-29T10:33:22;94940.03;;;31.10;24.76
43934;BME280;59081;42.706;23.306;2023-07-29T10:35:49;94883.81;;;30.68;23.90
43934;BME280;59081;42.706;23.306;2023-07-29T10:38:15;94845.75;;;29.84;24.72
43934;BME280;59081;42.706;23.306;2023-07-29T10:40:46;94885.56;;;30.24;23.95
43934;BME280;59081;42.706;23.306;2023-07-29T10:43:13;94953.25;;;31.23;24.16
43934;BME280;59081;42.706;23.306;2023-07-29T10:45:43;94952.94;;;31.11;24.08
43934;BME280;59081;42.706;23.306;2023-07-29T10:48:13;94974.25;;;31.27;24.66
43934;BME280;59081;42.706;23.306;2023-07-29T10:51:27;94977.34;;;31.46;24.82
43934;BME280;59081;42.706;23.306;2023-07-29T10:56:33;94969.41;;;31.87;23.63
43934;BME280;59081;42.706;23.306;2023-07-29T11:02:17;94960.41;;;32.33;23.27
43934;BME280;59081;42.706;23.306;2023-07-29T11:04:47;94937.91;;;31.68;23.29
43934;BME280;59081;42.706;23.306;2023-07-29T11:12:44;94963.31;;;30.84;23.97
43934;BME280;59081;42.706;23.306;2023-07-29T11:17:39;94849.84;;;30.78;23.76
43934;BME280;59081;42.706;23.306;2023-07-29T11:20:05;94816.31;;;31.19;23.45
43934;BME280;59081;42.706;23.306;2023-07-29T11:22:32;94864.53;;;31.93;22.25
43934;BME280;59081;42.706;23.306;2023-07-29T11:24:58;94859.13;;;32.32;21.81
43934;BME280;59081;42.706;23.306;2023-07-29T11:27:24;94864.41;;;32.62;21.55
43934;BME280;59081;42.706;23.306;2023-07-29T11:29:49;94847.56;;;32.57;22.67
43934;BME280;59081;42.706;23.306;2023-07-29T11:32:15;94870.16;;;32.99;22.11
43934;BME280;59081;42.706;23.306;2023-07-29T11:34:41;94855.41;;;32.39;21.59
43934;BME280;59081;42.706;23.306;2023-07-29T11:37:10;94809.47;;;31.91;22.12
43934;BME280;59081;42.706;23.306;2023-07-29T11:39:44;94827.97;;;32.16;21.97
43934;BME280;59081;42.706;23.306;2023-07-29T11:42:14;94807.69;;;32.66;22.18
43934;BME280;59081;42.706;23.306;2023-07-29T11:44:40;94895.09;;;33.44;22.18
43934;BME280;59081;42.706;23.306;2023-07-29T11:47:07;94800.97;;;32.71;21.80
43934;BME280;59081;42.706;23.306;2023-07-29T11:49:33;94943.34;;;34.15;21.17
43934;BME280;59081;42.706;23.306;2023-07-29T11:52:00;94839.78;;;33.30;21.70
43934;BME280;59081;42.706;23.306;2023-07-29T11:54:26;94946.31;;;33.79;21.45
43934;BME280;59081;42.706;23.306;2023-07-29T11:56:52;94821.00;;;33.27;21.11
43934;BME280;59081;42.706;23.306;2023-07-29T11:59:17;94789.19;;;33.50;20.74
43934;BME280;59081;42.706;23.306;2023-07-29T12:01:43;94900.59;;;34.66;18.25
43934;BME280;59081;42.706;23.306;2023-07-29T12:04:09;94754.47;;;33.34;18.19
43934;BME280;59081;42.706;23.306;2023-07-29T12:06:35;94772.19;;;34.00;18.70
43934;BME280;59081;42.706;23.306;2023-07-29T12:09:00;94840.19;;;34.81;18.84
43934;BME280;59081;42.706;23.306;2023-07-29T12:11:26;94925.09;;;35.69;18.30
43934;BME280;59081;42.706;23.306;2023-07-29T12:13:55;94798.34;;;34.76;19.54
43934;BME280;59081;42.706;23.306;2023-07-29T12:16:21;94784.81;;;34.67;17.81
43934;BME280;59081;42.706;23.306;2023-07-29T12:18:46;94915.66;;;34.76;17.94
43934;BME280;59081;42.706;23.306;2023-07-29T12:21:14;94837.22;;;34.69;18.36
43934;BME280;59081;42.706;23.306;2023-07-29T12:23:40;94805.53;;;34.86;17.41
43934;BME280;59081;42.706;23.306;2023-07-29T12:26:05;94771.19;;;34.96;17.12
43934;BME280;59081;42.706;23.306;2023-07-29T12:28:31;94752.75;;;34.78;17.24
43934;BME280;59081;42.706;23.306;2023-07-29T12:30:57;94779.84;;;35.08;17.13
43934;BME280;59081;42.706;23.306;2023-07-29T12:33:36;94834.66;;;35.66;17.36
43934;BME280;59081;42.706;23.306;2023-07-29T12:36:04;94775.41;;;35.47;17.08
43934;BME280;59081;42.706;23.306;2023-07-29T12:38:30;94798.28;;;35.90;16.89
43934;BME280;59081;42.706;23.306;2023-07-29T12:40:56;94839.06;;;35.36;17.48
43934;BME280;59081;42.706;23.306;2023-07-29T12:43:21;94852.81;;;33.79;19.02
43934;BME280;59081;42.706;23.306;2023-07-29T12:45:49;94837.31;;;33.82;19.08
43934;BME280;59081;42.706;23.306;2023-07-29T12:48:14;94776.72;;;33.55;18.56
43934;BME280;59081;42.706;23.306;2023-07-29T12:50:43;94761.81;;;33.95;18.71
43934;BME280;59081;42.706;23.306;2023-07-29T12:53:09;94710.13;;;33.81;18.13
43934;BME280;59081;42.706;23.306;2023-07-29T12:55:38;94838.06;;;35.22;17.76
43934;BME280;59081;42.706;23.306;2023-07-29T12:58:04;94811.75;;;35.14;18.05
43934;BME280;59081;42.706;23.306;2023-07-29T13:00:30;94755.88;;;35.13;17.79
43934;BME280;59081;42.706;23.306;2023-07-29T13:02:55;94802.31;;;35.97;17.05
43934;BME280;59081;42.706;23.306;2023-07-29T13:05:21;94791.78;;;35.68;17.12